sensor_id;sensor_type;location;lat;lon;timestamp;temperature;humidity
39899;DHT22;25571;47.876;10.642;2023-07-16T00:01:00;22.30;96.30
39899;DHT22;25571;47.876;10.642;2023-07-16T00:03:26;22.40;96.60
39899;DHT22;25571;47.876;10.642;2023-07-16T00:05:51;22.30;96.80
39899;DHT22;25571;47.876;10.642;2023-07-16T00:08:17;22.30;97.10
39899;DHT22;25571;47.876;10.642;2023-07-16T00:10:42;22.20;97.40
39899;DHT22;25571;47.876;10.642;2023-07-16T00:13:08;22.20;97.70
39899;DHT22;25571;47.876;10.642;2023-07-16T00:15:33;22.20;97.70
39899;DHT22;25571;47.876;10.642;2023-07-16T00:17:59;22.10;97.60
39899;DHT22;25571;47.876;10.642;2023-07-16T00:20:24;22.10;97.60
39899;DHT22;25571;47.876;10.642;2023-07-16T00:22:50;22.10;97.70
39899;DHT22;25571;47.876;10.642;2023-07-16T00:25:16;22.10;97.90
39899;DHT22;25571;47.876;10.642;2023-07-16T00:27:41;22.10;98.00
39899;DHT22;25571;47.876;10.642;2023-07-16T00:30:07;22.10;98.20
39899;DHT22;25571;47.876;10.642;2023-07-16T00:32:33;22.20;98.20
39899;DHT22;25571;47.876;10.642;2023-07-16T00:34:58;22.20;98.20
39899;DHT22;25571;47.876;10.642;2023-07-16T00:37:24;22.20;98.20
39899;DHT22;25571;47.876;10.642;2023-07-16T00:39:49;22.20;98.60
39899;DHT22;25571;47.876;10.642;2023-07-16T00:42:15;22.20;98.50
39899;DHT22;25571;47.876;10.642;2023-07-16T00:44:41;22.20;98.60
39899;DHT22;25571;47.876;10.642;2023-07-16T00:47:06;22.20;99.00
39899;DHT22;25571;47.876;10.642;2023-07-16T00:49:31;22.20;98.90
39899;DHT22;25571;47.876;10.642;2023-07-16T00:51:58;22.30;99.00
39899;DHT22;25571;47.876;10.642;2023-07-16T00:54:24;22.30;99.00
39899;DHT22;25571;47.876;10.642;2023-07-16T00:56:49;22.30;99.40
39899;DHT22;25571;47.876;10.642;2023-07-16T00:59:15;22.30;99.30
39899;DHT22;25571;47.876;10.642;2023-07-16T01:01:41;22.30;99.10
39899;DHT22;25571;47.876;10.642;2023-07-16T01:04:06;22.40;99.30
39899;DHT22;25571;47.876;10.642;2023-07-16T01:06:33;22.40;99.10
39899;DHT22;25571;47.876;10.642;2023-07-16T01:11:34;22.50;99.10
39899;DHT22;25571;47.876;10.642;2023-07-16T01:14:01;22.40;99.10
39899;DHT22;25571;47.876;10.642;2023-07-16T01:16:27;21.80;99.00
39899;DHT22;25571;47.876;10.642;2023-07-16T01:18:52;22.50;99.30
39899;DHT22;25571;47.876;10.642;2023-07-16T01:21:18;22.40;99.90
39899;DHT22;25571;47.876;10.642;2023-07-16T01:26:36;22.40;99.90
39899;DHT22;25571;47.876;10.642;2023-07-16T01:31:49;22.30;99.90
39899;DHT22;25571;47.876;10.642;2023-07-16T01:34:15;22.10;99.90
39899;DHT22;25571;47.876;10.642;2023-07-16T01:36:41;22.10;99.90
39899;DHT22;25571;47.876;10.642;2023-07-16T01:39:07;22.10;99.90
39899;DHT22;25571;47.876;10.642;2023-07-16T01:41:33;22.10;99.90
39899;DHT22;25571;47.876;10.642;2023-07-16T01:43:58;22.00;99.90
39899;DHT22;25571;47.876;10.642;2023-07-16T01:46:24;22.00;99.90
39899;DHT22;25571;47.876;10.642;2023-07-16T01:48:50;21.90;99.90
39899;DHT22;25571;47.876;10.642;2023-07-16T01:51:15;21.80;99.90
39899;DHT22;25571;47.876;10.642;2023-07-16T01:53:41;21.80;99.90
39899;DHT22;25571;47.876;10.642;2023-07-16T01:56:06;21.70;99.90
39899;DHT22;25571;47.876;10.642;2023-07-16T01:58:32;21.70;99.90
39899;DHT22;25571;47.876;10.642;2023-07-16T02:00:58;21.70;99.90
39899;DHT22;25571;47.876;10.642;2023-07-16T02:03:23;21.70;99.90
39899;DHT22;25571;47.876;10.642;2023-07-16T02:05:49;21.70;99.90
39899;DHT22;25571;47.876;10.642;2023-07-16T02:08:16;21.50;99.90
39899;DHT22;25571;47.876;10.642;2023-07-16T02:10:41;21.60;99.90
39899;DHT22;25571;47.876;10.642;2023-07-16T02:13:07;21.40;99.90
39899;DHT22;25571;47.876;10.642;2023-07-16T02:15:32;21.50;99.90
39899;DHT22;25571;47.876;10.642;2023-07-16T02:17:58;21.50;99.90
39899;DHT22;25571;47.876;10.642;2023-07-16T02:20:23;21.50;99.90
39899;DHT22;25571;47.876;10.642;2023-07-16T02:22:49;21.50;99.90
39899;DHT22;25571;47.876;10.642;2023-07-16T02:25:14;21.50;99.90
39899;DHT22;25571;47.876;10.642;2023-07-16T02:27:40;21.30;99.90
39899;DHT22;25571;47.876;10.642;2023-07-16T02:30:05;21.10;99.90
39899;DHT22;25571;47.876;10.642;2023-07-16T02:32:32;21.00;99.90
39899;DHT22;25571;47.876;10.642;2023-07-16T02:34:57;21.10;99.90
39899;DHT22;25571;47.876;10.642;2023-07-16T02:37:23;21.10;99.90
39899;DHT22;25571;47.876;10.642;2023-07-16T02:39:48;21.20;99.90
39899;DHT22;25571;47.876;10.642;2023-07-16T02:42:14;21.20;99.90
39899;DHT22;25571;47.876;10.642;2023-07-16T02:44:39;21.20;99.90
39899;DHT22;25571;47.876;10.642;2023-07-16T02:47:10;21.20;99.90
39899;DHT22;25571;47.876;10.642;2023-07-16T02:49:35;21.10;99.90
39899;DHT22;25571;47.876;10.642;2023-07-16T02:52:01;21.20;99.90
39899;DHT22;25571;47.876;10.642;2023-07-16T02:54:26;21.20;99.90
39899;DHT22;25571;47.876;10.642;2023-07-16T02:56:52;21.20;99.90
39899;DHT22;25571;47.876;10.642;2023-07-16T02:59:17;21.20;99.90
39899;DHT22;25571;47.876;10.642;2023-07-16T03:01:43;21.20;99.90
39899;DHT22;25571;47.876;10.642;2023-07-16T03:04:08;21.20;99.90
39899;DHT22;25571;47.876;10.642;2023-07-16T03:06:34;21.10;99.90
39899;DHT22;25571;47.876;10.642;2023-07-16T03:08:59;21.10;99.90
39899;DHT22;25571;47.876;10.642;2023-07-16T03:11:25;21.00;99.90
39899;DHT22;25571;47.876;10.642;2023-07-16T03:13:50;21.00;99.90
39899;DHT22;25571;47.876;10.642;2023-07-16T03:16:16;21.00;99.90
39899;DHT22;25571;47.876;10.642;2023-07-16T03:18:41;20.80;99.90
39899;DHT22;25571;47.876;10.642;2023-07-16T03:21:07;20.80;99.90
39899;DHT22;25571;47.876;10.642;2023-07-16T03:23:32;20.40;99.90
39899;DHT22;25571;47.876;10.642;2023-07-16T03:25:58;20.30;99.90
39899;DHT22;25571;47.876;10.642;2023-07-16T03:28:23;20.20;99.90
39899;DHT22;25571;47.876;10.642;2023-07-16T03:30:49;20.20;99.90
39899;DHT22;25571;47.876;10.642;2023-07-16T03:33:16;20.20;99.90
39899;DHT22;25571;47.876;10.642;2023-07-16T03:35:42;20.10;99.90
39899;DHT22;25571;47.876;10.642;2023-07-16T03:38:08;19.90;99.90
39899;DHT22;25571;47.876;10.642;2023-07-16T03:40:33;19.90;99.90
39899;DHT22;25571;47.876;10.642;2023-07-16T03:42:59;19.80;99.90
39899;DHT22;25571;47.876;10.642;2023-07-16T03:45:24;19.70;99.90
39899;DHT22;25571;47.876;10.642;2023-07-16T03:47:50;19.70;99.90
39899;DHT22;25571;47.876;10.642;2023-07-16T03:50:15;19.60;99.90
39899;DHT22;25571;47.876;10.642;2023-07-16T03:52:41;19.60;99.90
39899;DHT22;25571;47.876;10.642;2023-07-16T03:55:07;19.50;99.90
39899;DHT22;25571;47.876;10.642;2023-07-16T03:57:32;19.50;99.90
39899;DHT22;25571;47.876;10.642;2023-07-16T03:59:58;19.40;99.90
39899;DHT22;25571;47.876;10.642;2023-07-16T04:02:24;19.10;99.90
39899;DHT22;25571;47.876;10.642;2023-07-16T04:04:49;18.80;99.90
39899;DHT22;25571;47.876;10.642;2023-07-16T04:07:15;18.80;99.90
39899;DHT22;25571;47.876;10.642;2023-07-16T04:09:41;18.90;99.90
39899;DHT22;25571;47.876;10.642;2023-07-16T04:12:06;18.80;99.90
39899;DHT22;25571;47.876;10.642;2023-07-16T04:14:32;18.90;99.90
39899;DHT22;25571;47.876;10.642;2023-07-16T04:16:58;19.00;99.90
39899;DHT22;25571;47.876;10.642;2023-07-16T04:19:23;18.90;99.90
39899;DHT22;25571;47.876;10.642;2023-07-16T04:21:49;18.90;99.90
39899;DHT22;25571;47.876;10.642;2023-07-16T04:24:14;19.00;99.90
39899;DHT22;25571;47.876;10.642;2023-07-16T04:26:40;19.10;99.90
39899;DHT22;25571;47.876;10.642;2023-07-16T04:29:05;19.20;99.90
39899;DHT22;25571;47.876;10.642;2023-07-16T04:31:31;19.20;99.90
39899;DHT22;25571;47.876;10.642;2023-07-16T04:33:56;19.20;99.90
39899;DHT22;25571;47.876;10.642;2023-07-16T04:36:22;19.20;99.90
39899;DHT22;25571;47.876;10.642;2023-07-16T04:38:47;19.30;99.90
39899;DHT22;25571;47.876;10.642;2023-07-16T04:41:12;19.30;99.90
39899;DHT22;25571;47.876;10.642;2023-07-16T04:43:38;19.30;99.90
39899;DHT22;25571;47.876;10.642;2023-07-16T04:46:04;19.30;99.90
39899;DHT22;25571;47.876;10.642;2023-07-16T04:48:29;19.40;99.90
39899;DHT22;25571;47.876;10.642;2023-07-16T04:50:55;19.40;99.90
39899;DHT22;25571;47.876;10.642;2023-07-16T04:53:21;19.40;99.90
39899;DHT22;25571;47.876;10.642;2023-07-16T04:55:47;19.40;99.90
39899;DHT22;25571;47.876;10.642;2023-07-16T04:58:12;19.30;99.90
39899;DHT22;25571;47.876;10.642;2023-07-16T05:00:38;19.30;99.90
39899;DHT22;25571;47.876;10.642;2023-07-16T05:03:03;19.20;99.90
39899;DHT22;25571;47.876;10.642;2023-07-16T05:05:29;19.20;99.90
39899;DHT22;25571;47.876;10.642;2023-07-16T05:07:54;19.20;99.90
39899;DHT22;25571;47.876;10.642;2023-07-16T05:10:20;19.30;99.90
39899;DHT22;25571;47.876;10.642;2023-07-16T05:12:45;19.30;99.90
39899;DHT22;25571;47.876;10.642;2023-07-16T05:15:11;19.40;99.90
39899;DHT22;25571;47.876;10.642;2023-07-16T05:17:36;19.40;99.90
39899;DHT22;25571;47.876;10.642;2023-07-16T05:20:02;19.40;99.90
39899;DHT22;25571;47.876;10.642;2023-07-16T05:22:29;19.40;99.90
39899;DHT22;25571;47.876;10.642;2023-07-16T05:24:55;19.50;99.90
39899;DHT22;25571;47.876;10.642;2023-07-16T05:27:20;19.60;99.90
39899;DHT22;25571;47.876;10.642;2023-07-16T05:29:46;19.60;99.90
39899;DHT22;25571;47.876;10.642;2023-07-16T05:32:11;19.60;99.90
39899;DHT22;25571;47.876;10.642;2023-07-16T05:34:37;19.70;99.90
39899;DHT22;25571;47.876;10.642;2023-07-16T05:37:02;19.70;99.90
39899;DHT22;25571;47.876;10.642;2023-07-16T05:39:28;19.70;99.90
39899;DHT22;25571;47.876;10.642;2023-07-16T05:41:53;19.70;99.90
39899;DHT22;25571;47.876;10.642;2023-07-16T05:44:19;18.90;99.90
39899;DHT22;25571;47.876;10.642;2023-07-16T05:46:45;19.60;99.90
39899;DHT22;25571;47.876;10.642;2023-07-16T05:49:10;19.60;99.90
39899;DHT22;25571;47.876;10.642;2023-07-16T05:51:36;19.60;99.90
39899;DHT22;25571;47.876;10.642;2023-07-16T05:54:01;19.60;99.90
39899;DHT22;25571;47.876;10.642;2023-07-16T05:56:27;19.60;99.90
39899;DHT22;25571;47.876;10.642;2023-07-16T05:58:53;19.60;99.90
39899;DHT22;25571;47.876;10.642;2023-07-16T06:01:18;19.60;99.90
39899;DHT22;25571;47.876;10.642;2023-07-16T06:03:44;19.60;99.90
39899;DHT22;25571;47.876;10.642;2023-07-16T06:06:09;19.60;99.90
39899;DHT22;25571;47.876;10.642;2023-07-16T06:08:35;19.50;99.90
39899;DHT22;25571;47.876;10.642;2023-07-16T06:11:00;19.60;99.90
39899;DHT22;25571;47.876;10.642;2023-07-16T06:13:26;19.50;99.90
39899;DHT22;25571;47.876;10.642;2023-07-16T06:15:51;19.50;99.90
39899;DHT22;25571;47.876;10.642;2023-07-16T06:18:17;19.40;99.90
39899;DHT22;25571;47.876;10.642;2023-07-16T06:20:43;19.40;99.90
39899;DHT22;25571;47.876;10.642;2023-07-16T06:23:09;19.40;99.90
39899;DHT22;25571;47.876;10.642;2023-07-16T06:25:36;19.40;99.90
39899;DHT22;25571;47.876;10.642;2023-07-16T06:28:02;19.20;99.90
39899;DHT22;25571;47.876;10.642;2023-07-16T06:30:27;19.40;99.90
39899;DHT22;25571;47.876;10.642;2023-07-16T06:32:52;19.40;99.90
39899;DHT22;25571;47.876;10.642;2023-07-16T06:35:18;19.40;99.90
39899;DHT22;25571;47.876;10.642;2023-07-16T06:37:43;19.30;99.90
39899;DHT22;25571;47.876;10.642;2023-07-16T06:40:09;19.30;99.90
39899;DHT22;25571;47.876;10.642;2023-07-16T06:42:35;19.40;99.90
39899;DHT22;25571;47.876;10.642;2023-07-16T06:45:00;19.40;99.90
39899;DHT22;25571;47.876;10.642;2023-07-16T06:47:26;19.30;99.90
39899;DHT22;25571;47.876;10.642;2023-07-16T06:49:51;19.30;99.90
39899;DHT22;25571;47.876;10.642;2023-07-16T06:52:20;19.30;99.90
39899;DHT22;25571;47.876;10.642;2023-07-16T06:54:46;19.40;99.90
39899;DHT22;25571;47.876;10.642;2023-07-16T06:57:11;19.40;99.90
39899;DHT22;25571;47.876;10.642;2023-07-16T06:59:37;19.60;99.90
39899;DHT22;25571;47.876;10.642;2023-07-16T07:02:02;19.70;99.90
39899;DHT22;25571;47.876;10.642;2023-07-16T07:04:28;19.70;99.90
39899;DHT22;25571;47.876;10.642;2023-07-16T07:06:53;19.80;99.90
39899;DHT22;25571;47.876;10.642;2023-07-16T07:09:19;20.00;99.90
39899;DHT22;25571;47.876;10.642;2023-07-16T07:11:44;20.30;99.90
39899;DHT22;25571;47.876;10.642;2023-07-16T07:14:10;20.30;99.90
39899;DHT22;25571;47.876;10.642;2023-07-16T07:16:35;20.20;99.90
39899;DHT22;25571;47.876;10.642;2023-07-16T07:19:01;20.20;99.90
39899;DHT22;25571;47.876;10.642;2023-07-16T07:21:27;20.10;99.90
39899;DHT22;25571;47.876;10.642;2023-07-16T07:23:53;20.00;99.90
39899;DHT22;25571;47.876;10.642;2023-07-16T07:26:18;20.00;99.90
39899;DHT22;25571;47.876;10.642;2023-07-16T07:28:44;20.00;99.90
39899;DHT22;25571;47.876;10.642;2023-07-16T07:31:09;20.10;99.90
39899;DHT22;25571;47.876;10.642;2023-07-16T07:33:35;20.30;99.90
39899;DHT22;25571;47.876;10.642;2023-07-16T07:36:00;20.50;99.90
39899;DHT22;25571;47.876;10.642;2023-07-16T07:38:26;20.80;99.90
39899;DHT22;25571;47.876;10.642;2023-07-16T07:40:51;21.20;99.90
39899;DHT22;25571;47.876;10.642;2023-07-16T07:43:17;21.50;99.90
39899;DHT22;25571;47.876;10.642;2023-07-16T07:45:43;22.10;99.90
39899;DHT22;25571;47.876;10.642;2023-07-16T07:48:09;22.70;99.90
39899;DHT22;25571;47.876;10.642;2023-07-16T07:50:34;23.10;99.90
39899;DHT22;25571;47.876;10.642;2023-07-16T07:52:59;23.00;99.90
39899;DHT22;25571;47.876;10.642;2023-07-16T07:55:25;23.00;99.90
39899;DHT22;25571;47.876;10.642;2023-07-16T07:57:50;23.00;99.90
39899;DHT22;25571;47.876;10.642;2023-07-16T08:00:16;22.80;99.90
39899;DHT22;25571;47.876;10.642;2023-07-16T08:02:41;22.60;99.90
39899;DHT22;25571;47.876;10.642;2023-07-16T08:05:07;22.50;99.90
39899;DHT22;25571;47.876;10.642;2023-07-16T08:07:33;22.50;99.90
39899;DHT22;25571;47.876;10.642;2023-07-16T08:09:58;22.50;99.90
39899;DHT22;25571;47.876;10.642;2023-07-16T08:12:24;22.90;99.90
39899;DHT22;25571;47.876;10.642;2023-07-16T08:14:49;23.30;99.90
39899;DHT22;25571;47.876;10.642;2023-07-16T08:17:15;23.60;99.90
39899;DHT22;25571;47.876;10.642;2023-07-16T08:19:40;24.10;99.90
39899;DHT22;25571;47.876;10.642;2023-07-16T08:22:06;24.50;99.90
39899;DHT22;25571;47.876;10.642;2023-07-16T08:24:31;24.80;99.90
39899;DHT22;25571;47.876;10.642;2023-07-16T08:26:56;25.30;99.90
39899;DHT22;25571;47.876;10.642;2023-07-16T08:29:22;25.70;99.90
39899;DHT22;25571;47.876;10.642;2023-07-16T08:31:47;26.40;99.90
39899;DHT22;25571;47.876;10.642;2023-07-16T08:34:13;26.70;99.90
39899;DHT22;25571;47.876;10.642;2023-07-16T08:36:38;27.10;99.90
39899;DHT22;25571;47.876;10.642;2023-07-16T08:39:04;27.30;99.90
39899;DHT22;25571;47.876;10.642;2023-07-16T08:41:31;27.90;99.90
39899;DHT22;25571;47.876;10.642;2023-07-16T08:43:56;28.70;99.90
39899;DHT22;25571;47.876;10.642;2023-07-16T08:46:22;28.90;99.50
39899;DHT22;25571;47.876;10.642;2023-07-16T08:48:48;29.30;98.50
39899;DHT22;25571;47.876;10.642;2023-07-16T08:51:14;29.60;96.30
39899;DHT22;25571;47.876;10.642;2023-07-16T08:53:40;30.60;94.80
39899;DHT22;25571;47.876;10.642;2023-07-16T08:56:05;33.20;90.30
39899;DHT22;25571;47.876;10.642;2023-07-16T08:58:31;35.30;72.40
39899;DHT22;25571;47.876;10.642;2023-07-16T09:00:57;37.40;70.10
39899;DHT22;25571;47.876;10.642;2023-07-16T09:03:23;39.60;62.00
39899;DHT22;25571;47.876;10.642;2023-07-16T09:05:49;41.50;54.00
39899;DHT22;25571;47.876;10.642;2023-07-16T09:08:14;42.50;51.80
39899;DHT22;25571;47.876;10.642;2023-07-16T09:10:41;43.20;48.50
39899;DHT22;25571;47.876;10.642;2023-07-16T09:13:06;40.90;48.70
39899;DHT22;25571;47.876;10.642;2023-07-16T09:15:32;38.70;52.10
39899;DHT22;25571;47.876;10.642;2023-07-16T09:17:59;38.00;53.20
39899;DHT22;25571;47.876;10.642;2023-07-16T09:20:25;37.10;54.00
39899;DHT22;25571;47.876;10.642;2023-07-16T09:22:53;36.20;52.60
39899;DHT22;25571;47.876;10.642;2023-07-16T09:25:19;34.60;53.50
39899;DHT22;25571;47.876;10.642;2023-07-16T09:27:48;33.30;57.80
39899;DHT22;25571;47.876;10.642;2023-07-16T09:30:16;32.40;58.50
39899;DHT22;25571;47.876;10.642;2023-07-16T09:32:42;30.90;56.70
39899;DHT22;25571;47.876;10.642;2023-07-16T09:35:14;30.00;60.90
39899;DHT22;25571;47.876;10.642;2023-07-16T09:37:41;29.20;58.50
39899;DHT22;25571;47.876;10.642;2023-07-16T09:40:07;28.60;64.40
39899;DHT22;25571;47.876;10.642;2023-07-16T09:42:39;28.70;69.30
39899;DHT22;25571;47.876;10.642;2023-07-16T09:45:06;28.50;68.10
39899;DHT22;25571;47.876;10.642;2023-07-16T09:47:34;28.30;63.00
39899;DHT22;25571;47.876;10.642;2023-07-16T09:49:59;28.30;65.90
39899;DHT22;25571;47.876;10.642;2023-07-16T09:52:25;28.10;64.20
39899;DHT22;25571;47.876;10.642;2023-07-16T09:54:52;28.00;68.90
39899;DHT22;25571;47.876;10.642;2023-07-16T09:57:20;27.80;69.00
39899;DHT22;25571;47.876;10.642;2023-07-16T09:59:46;27.90;71.10
39899;DHT22;25571;47.876;10.642;2023-07-16T10:02:12;27.90;73.60
39899;DHT22;25571;47.876;10.642;2023-07-16T10:04:38;28.00;73.70
39899;DHT22;25571;47.876;10.642;2023-07-16T10:07:06;28.00;74.90
39899;DHT22;25571;47.876;10.642;2023-07-16T10:14:54;28.20;72.20
39899;DHT22;25571;47.876;10.642;2023-07-16T10:17:23;28.30;72.00
39899;DHT22;25571;47.876;10.642;2023-07-16T10:19:56;28.60;69.70
39899;DHT22;25571;47.876;10.642;2023-07-16T10:22:32;28.80;74.00
39899;DHT22;25571;47.876;10.642;2023-07-16T10:24:58;29.10;71.80
39899;DHT22;25571;47.876;10.642;2023-07-16T10:27:33;29.20;71.10
39899;DHT22;25571;47.876;10.642;2023-07-16T10:29:59;29.40;67.20
39899;DHT22;25571;47.876;10.642;2023-07-16T10:32:28;29.40;67.00
39899;DHT22;25571;47.876;10.642;2023-07-16T10:34:54;29.00;68.10
39899;DHT22;25571;47.876;10.642;2023-07-16T10:37:19;28.40;67.60
39899;DHT22;25571;47.876;10.642;2023-07-16T10:39:48;28.30;72.00
39899;DHT22;25571;47.876;10.642;2023-07-16T10:42:17;28.70;69.60
39899;DHT22;25571;47.876;10.642;2023-07-16T10:44:43;29.00;68.40
39899;DHT22;25571;47.876;10.642;2023-07-16T10:47:31;28.90;71.30
39899;DHT22;25571;47.876;10.642;2023-07-16T10:49:55;28.60;73.40
39899;DHT22;25571;47.876;10.642;2023-07-16T10:52:21;28.50;73.40
39899;DHT22;25571;47.876;10.642;2023-07-16T10:54:47;28.50;73.70
39899;DHT22;25571;47.876;10.642;2023-07-16T10:57:13;28.50;77.50
39899;DHT22;25571;47.876;10.642;2023-07-16T10:59:41;28.30;72.80
39899;DHT22;25571;47.876;10.642;2023-07-16T11:02:08;28.10;71.10
39899;DHT22;25571;47.876;10.642;2023-07-16T11:04:35;28.00;71.10
39899;DHT22;25571;47.876;10.642;2023-07-16T11:07:10;28.00;73.10
39899;DHT22;25571;47.876;10.642;2023-07-16T11:12:11;28.10;71.20
39899;DHT22;25571;47.876;10.642;2023-07-16T11:14:37;28.00;70.00
39899;DHT22;25571;47.876;10.642;2023-07-16T11:17:03;27.70;72.40
39899;DHT22;25571;47.876;10.642;2023-07-16T11:19:30;27.70;70.70
39899;DHT22;25571;47.876;10.642;2023-07-16T11:21:56;27.70;72.30
39899;DHT22;25571;47.876;10.642;2023-07-16T11:24:21;27.90;71.60
39899;DHT22;25571;47.876;10.642;2023-07-16T11:27:06;28.00;71.30
39899;DHT22;25571;47.876;10.642;2023-07-16T11:29:35;27.70;72.20
39899;DHT22;25571;47.876;10.642;2023-07-16T11:32:04;27.40;72.50
39899;DHT22;25571;47.876;10.642;2023-07-16T11:34:30;27.30;73.70
39899;DHT22;25571;47.876;10.642;2023-07-16T11:37:06;27.50;73.90
39899;DHT22;25571;47.876;10.642;2023-07-16T11:39:31;27.60;71.30
39899;DHT22;25571;47.876;10.642;2023-07-16T11:41:57;27.80;75.20
39899;DHT22;25571;47.876;10.642;2023-07-16T11:44:22;27.80;74.60
39899;DHT22;25571;47.876;10.642;2023-07-16T11:46:48;27.70;71.20
39899;DHT22;25571;47.876;10.642;2023-07-16T11:49:13;27.60;70.70
39899;DHT22;25571;47.876;10.642;2023-07-16T11:51:39;27.70;73.20
39899;DHT22;25571;47.876;10.642;2023-07-16T11:54:04;27.70;73.70
39899;DHT22;25571;47.876;10.642;2023-07-16T11:56:30;28.00;70.60
39899;DHT22;25571;47.876;10.642;2023-07-16T11:58:55;28.00;73.30
39899;DHT22;25571;47.876;10.642;2023-07-16T12:01:21;28.00;74.20
39899;DHT22;25571;47.876;10.642;2023-07-16T12:03:46;27.80;73.30
39899;DHT22;25571;47.876;10.642;2023-07-16T12:06:12;27.70;72.20
39899;DHT22;25571;47.876;10.642;2023-07-16T12:08:38;27.60;72.00
39899;DHT22;25571;47.876;10.642;2023-07-16T12:11:03;27.40;73.30
39899;DHT22;25571;47.876;10.642;2023-07-16T12:13:29;27.20;71.70
39899;DHT22;25571;47.876;10.642;2023-07-16T12:15:54;27.00;73.20
39899;DHT22;25571;47.876;10.642;2023-07-16T12:18:20;27.00;76.40
39899;DHT22;25571;47.876;10.642;2023-07-16T12:20:45;27.30;75.60
39899;DHT22;25571;47.876;10.642;2023-07-16T12:23:11;27.40;74.00
39899;DHT22;25571;47.876;10.642;2023-07-16T12:25:36;27.50;73.50
39899;DHT22;25571;47.876;10.642;2023-07-16T12:28:01;27.40;72.30
39899;DHT22;25571;47.876;10.642;2023-07-16T12:30:27;27.40;73.40
39899;DHT22;25571;47.876;10.642;2023-07-16T12:32:53;27.30;75.00
39899;DHT22;25571;47.876;10.642;2023-07-16T12:35:18;27.20;73.90
39899;DHT22;25571;47.876;10.642;2023-07-16T12:37:44;27.20;73.50
39899;DHT22;25571;47.876;10.642;2023-07-16T12:40:10;27.20;75.10
39899;DHT22;25571;47.876;10.642;2023-07-16T12:42:35;27.20;74.30
39899;DHT22;25571;47.876;10.642;2023-07-16T12:45:01;26.90;74.10
39899;DHT22;25571;47.876;10.642;2023-07-16T12:47:27;26.90;74.60
39899;DHT22;25571;47.876;10.642;2023-07-16T12:49:52;26.80;75.10
39899;DHT22;25571;47.876;10.642;2023-07-16T12:52:18;26.90;75.20
39899;DHT22;25571;47.876;10.642;2023-07-16T12:54:43;26.70;75.30
39899;DHT22;25571;47.876;10.642;2023-07-16T12:57:09;26.70;75.30
39899;DHT22;25571;47.876;10.642;2023-07-16T12:59:34;26.60;74.90
39899;DHT22;25571;47.876;10.642;2023-07-16T13:02:00;26.60;75.80
39899;DHT22;25571;47.876;10.642;2023-07-16T13:04:25;26.50;74.90
39899;DHT22;25571;47.876;10.642;2023-07-16T13:06:51;26.60;77.10
39899;DHT22;25571;47.876;10.642;2023-07-16T13:09:16;26.70;74.50
39899;DHT22;25571;47.876;10.642;2023-07-16T13:11:42;26.80;75.60
39899;DHT22;25571;47.876;10.642;2023-07-16T13:14:08;26.60;75.50
39899;DHT22;25571;47.876;10.642;2023-07-16T13:16:33;26.70;75.90
39899;DHT22;25571;47.876;10.642;2023-07-16T13:18:59;26.70;76.90
39899;DHT22;25571;47.876;10.642;2023-07-16T13:21:24;26.60;76.80
39899;DHT22;25571;47.876;10.642;2023-07-16T13:23:50;26.50;76.40
39899;DHT22;25571;47.876;10.642;2023-07-16T13:26:15;26.50;77.00
39899;DHT22;25571;47.876;10.642;2023-07-16T13:28:41;26.40;76.40
39899;DHT22;25571;47.876;10.642;2023-07-16T13:31:07;26.30;78.10
39899;DHT22;25571;47.876;10.642;2023-07-16T13:33:32;26.20;79.00
39899;DHT22;25571;47.876;10.642;2023-07-16T13:35:58;26.30;78.70
39899;DHT22;25571;47.876;10.642;2023-07-16T13:38:26;26.30;78.10
39899;DHT22;25571;47.876;10.642;2023-07-16T13:40:52;26.50;81.40
39899;DHT22;25571;47.876;10.642;2023-07-16T13:43:17;26.60;80.70
39899;DHT22;25571;47.876;10.642;2023-07-16T13:45:43;26.60;79.40
39899;DHT22;25571;47.876;10.642;2023-07-16T13:48:09;26.40;80.00
39899;DHT22;25571;47.876;10.642;2023-07-16T13:50:34;26.40;80.10
39899;DHT22;25571;47.876;10.642;2023-07-16T13:53:00;26.30;79.60
39899;DHT22;25571;47.876;10.642;2023-07-16T13:55:27;26.30;80.40
39899;DHT22;25571;47.876;10.642;2023-07-16T13:57:53;26.40;79.60
39899;DHT22;25571;47.876;10.642;2023-07-16T14:00:18;26.50;80.00
39899;DHT22;25571;47.876;10.642;2023-07-16T14:02:44;26.40;79.00
39899;DHT22;25571;47.876;10.642;2023-07-16T14:05:10;26.20;82.60
39899;DHT22;25571;47.876;10.642;2023-07-16T14:07:35;26.40;81.80
39899;DHT22;25571;47.876;10.642;2023-07-16T14:10:01;26.40;80.50
39899;DHT22;25571;47.876;10.642;2023-07-16T14:12:26;26.30;81.50
39899;DHT22;25571;47.876;10.642;2023-07-16T14:14:52;26.30;81.60
39899;DHT22;25571;47.876;10.642;2023-07-16T14:17:17;26.30;81.40
39899;DHT22;25571;47.876;10.642;2023-07-16T14:19:43;26.20;80.60
39899;DHT22;25571;47.876;10.642;2023-07-16T14:22:08;26.10;81.00
39899;DHT22;25571;47.876;10.642;2023-07-16T14:24:38;26.00;81.50
39899;DHT22;25571;47.876;10.642;2023-07-16T14:27:05;26.00;81.50
39899;DHT22;25571;47.876;10.642;2023-07-16T14:29:31;26.10;82.20
39899;DHT22;25571;47.876;10.642;2023-07-16T14:31:57;26.10;82.20
39899;DHT22;25571;47.876;10.642;2023-07-16T14:34:22;26.20;82.10
39899;DHT22;25571;47.876;10.642;2023-07-16T14:36:48;26.30;82.00
39899;DHT22;25571;47.876;10.642;2023-07-16T14:39:14;26.20;81.40
39899;DHT22;25571;47.876;10.642;2023-07-16T14:41:40;26.30;82.70
39899;DHT22;25571;47.876;10.642;2023-07-16T14:44:05;26.40;81.70
39899;DHT22;25571;47.876;10.642;2023-07-16T14:46:31;26.40;82.70
39899;DHT22;25571;47.876;10.642;2023-07-16T14:48:56;26.40;82.10
39899;DHT22;25571;47.876;10.642;2023-07-16T14:51:23;26.50;82.40
39899;DHT22;25571;47.876;10.642;2023-07-16T14:53:50;26.40;80.80
39899;DHT22;25571;47.876;10.642;2023-07-16T14:56:15;26.50;82.60
39899;DHT22;25571;47.876;10.642;2023-07-16T14:58:41;26.60;83.00
39899;DHT22;25571;47.876;10.642;2023-07-16T15:01:06;26.60;84.00
39899;DHT22;25571;47.876;10.642;2023-07-16T15:03:35;26.70;82.50
39899;DHT22;25571;47.876;10.642;2023-07-16T15:06:05;26.70;81.30
39899;DHT22;25571;47.876;10.642;2023-07-16T15:08:31;26.60;80.70
39899;DHT22;25571;47.876;10.642;2023-07-16T15:10:57;26.50;80.40
39899;DHT22;25571;47.876;10.642;2023-07-16T15:13:22;26.40;83.20
39899;DHT22;25571;47.876;10.642;2023-07-16T15:15:51;26.50;83.10
39899;DHT22;25571;47.876;10.642;2023-07-16T15:18:16;26.40;83.50
39899;DHT22;25571;47.876;10.642;2023-07-16T15:20:42;26.40;81.10
39899;DHT22;25571;47.876;10.642;2023-07-16T15:23:07;26.30;82.50